Cover City, Nevada
Current Conditions -  °F | °C
As of 12:35 AM on Friday 21 Nov 2014 (Local Time) from KENV Reporting Station
Clear Clear  
Wind Chill: -3°   Ceiling: Unl
Heat Index: -3°   Visibility: 10mi
Dew Point: -8°   Wind: 3mph
Humidity: 69%   Direction: 30°NNE
Pressure: 30.02"   Gusts: NA
Location:  41.0114°N, 114.57°W
Report Text: KENV 210835Z AUTO 03003KT 10SM CLR M03/M08 A3002 RMK AO1
Loading
Personal Weather Stations






























Interactive Weather Map New forecast layout! Learn more

10-Day Weather Forecast

Advertisements
Track Severe Weather on mobile